createdAt,value
2022-09-05T00:02:02.247Z,10.18
2022-09-05T00:04:50.976Z,8.32
2022-09-05T00:07:59.199Z,10.88
2022-09-05T00:10:37.220Z,10.18
2022-09-05T00:13:09.943Z,10.20
2022-09-05T00:15:58.358Z,9.50
2022-09-05T00:24:19.830Z,7.55
2022-09-05T00:24:32.275Z,7.63
2022-09-05T00:25:14.880Z,7.75
2022-09-05T00:27:42.734Z,8.10
2022-09-05T00:31:07.810Z,9.18
2022-09-05T00:33:17.748Z,10.65
2022-09-05T00:36:21.931Z,10.30
2022-09-05T00:39:01.362Z,11.20
2022-09-05T00:41:29.255Z,15.45
2022-09-05T00:44:03.038Z,16.02
2022-09-05T00:46:34.825Z,14.27
2022-09-05T00:49:37.362Z,15.25
2022-09-05T00:52:10.533Z,20.38
2022-09-05T00:54:53.305Z,16.67
2022-09-05T00:57:41.689Z,16.10
2022-09-05T01:00:25.265Z,19.02
2022-09-05T01:03:10.758Z,16.90
2022-09-05T01:05:43.666Z,22.52
2022-09-05T01:08:21.776Z,18.20
2022-09-05T01:11:21.001Z,16.90
2022-09-05T01:14:00.163Z,18.60
2022-09-05T01:17:02.679Z,18.25
2022-09-05T01:23:00.458Z,17.80
2022-09-05T01:25:47.092Z,16.45
2022-09-05T01:29:17.947Z,14.38
2022-09-05T01:31:59.124Z,13.65
2022-09-05T01:34:41.691Z,13.43
2022-09-05T01:37:31.270Z,13.93
2022-09-05T01:40:22.198Z,13.65
2022-09-05T01:43:06.109Z,12.02
2022-09-05T01:45:54.616Z,13.50
2022-09-05T01:48:35.401Z,12.65
2022-09-05T01:51:37.594Z,13.45
2022-09-05T01:54:29.221Z,14.48
2022-09-05T01:57:14.884Z,11.63
2022-09-05T01:59:56.072Z,14.60
2022-09-05T02:02:48.948Z,11.98
2022-09-05T02:05:57.066Z,12.52
2022-09-05T02:08:41.953Z,10.50
2022-09-05T02:11:11.266Z,13.65
2022-09-05T02:13:38.027Z,13.40
2022-09-05T02:16:23.279Z,11.27
2022-09-05T02:19:09.405Z,13.73
2022-09-05T02:21:56.676Z,11.90
2022-09-05T02:24:33.192Z,10.68
2022-09-05T02:27:31.790Z,10.77
2022-09-05T02:30:18.686Z,10.60
2022-09-05T02:33:14.256Z,10.27
2022-09-05T02:35:52.448Z,10.75
2022-09-05T02:39:25.592Z,9.70
2022-09-05T02:45:13.702Z,8.88
2022-09-05T02:45:19.716Z,9.70
2022-09-05T02:47:23.480Z,10.55
2022-09-05T02:53:42.843Z,10.43
2022-09-05T02:57:34.567Z,12.93
2022-09-05T02:57:36.861Z,7.55
2022-09-05T02:59:16.075Z,8.23
2022-09-05T03:02:25.959Z,8.88
2022-09-05T03:05:05.084Z,7.75
2022-09-05T03:07:37.846Z,11.13
2022-09-05T03:10:53.941Z,10.00
2022-09-05T03:13:57.086Z,8.48
2022-09-05T03:16:32.689Z,7.53
2022-09-05T03:19:26.587Z,8.73
2022-09-05T03:21:56.100Z,6.82
2022-09-05T03:24:37.710Z,5.53
2022-09-05T03:27:29.434Z,7.07
2022-09-05T03:30:06.550Z,7.82
2022-09-05T03:32:54.559Z,7.00
2022-09-05T03:35:42.396Z,7.07
2022-09-05T03:38:17.831Z,7.25
2022-09-05T03:40:47.101Z,8.07
2022-09-05T03:43:32.633Z,9.55
2022-09-05T03:46:08.306Z,6.80
2022-09-05T03:49:58.045Z,8.70
2022-09-05T03:57:08.774Z,9.63
2022-09-05T03:57:20.727Z,10.23
2022-09-05T03:59:20.244Z,7.37
2022-09-05T04:03:51.782Z,7.30
2022-09-05T04:08:15.459Z,6.93
2022-09-05T04:10:28.154Z,9.32
2022-09-05T04:13:30.216Z,9.43
2022-09-05T04:16:22.033Z,9.38
2022-09-05T04:19:18.258Z,8.15
2022-09-05T04:22:12.481Z,10.45
2022-09-05T04:24:53.175Z,12.10
2022-09-05T04:27:24.377Z,7.60
2022-09-05T04:30:38.530Z,12.20
2022-09-05T04:33:22.202Z,8.82
2022-09-05T04:36:26.417Z,9.20
2022-09-05T04:39:17.629Z,10.40
2022-09-05T04:41:55.405Z,7.55
2022-09-05T04:44:37.349Z,11.27
2022-09-05T04:47:24.477Z,12.00
2022-09-05T04:50:04.386Z,9.80
2022-09-05T04:52:49.384Z,10.45
2022-09-05T04:55:20.799Z,11.43
2022-09-05T04:58:13.664Z,11.18
2022-09-05T05:06:05.570Z,8.85
2022-09-05T05:06:10.498Z,12.93
2022-09-05T05:06:44.437Z,12.38
2022-09-05T05:09:18.677Z,10.27
2022-09-05T05:17:58.149Z,7.32
2022-09-05T05:18:14.078Z,7.70
2022-09-05T05:18:41.200Z,10.35
2022-09-05T05:20:52.834Z,14.88
2022-09-05T05:23:50.490Z,5.97
2022-09-05T05:26:47.316Z,8.00
2022-09-05T05:29:20.922Z,6.00
2022-09-05T05:31:54.455Z,6.43
2022-09-05T05:34:26.081Z,8.13
2022-09-05T05:37:05.857Z,9.18
2022-09-05T05:39:35.513Z,7.40
2022-09-05T05:42:19.403Z,7.40
2022-09-05T05:44:53.918Z,4.32
2022-09-05T05:47:42.370Z,5.30
2022-09-05T05:50:35.264Z,5.78
2022-09-05T05:53:42.466Z,6.40
2022-09-05T05:56:10.524Z,5.85
2022-09-05T05:59:25.303Z,5.88
2022-09-05T06:02:10.623Z,4.88
2022-09-05T06:04:55.233Z,5.72
2022-09-05T06:09:14.151Z,4.68
2022-09-05T06:14:56.254Z,5.55
2022-09-05T06:15:05.252Z,6.40
2022-09-05T06:18:02.901Z,6.82
2022-09-05T06:22:07.419Z,5.18
2022-09-05T06:23:53.293Z,4.60
2022-09-05T06:26:59.023Z,6.15
2022-09-05T06:29:35.218Z,5.93
2022-09-05T06:32:15.659Z,3.78
2022-09-05T06:35:17.979Z,7.60
2022-09-05T06:37:50.992Z,7.63
2022-09-05T06:40:20.035Z,7.40
2022-09-05T06:43:01.893Z,3.63
2022-09-05T06:45:58.665Z,7.57
2022-09-05T06:49:30.057Z,4.72
2022-09-05T06:51:55.007Z,6.60
2022-09-05T06:55:02.515Z,5.05
2022-09-05T06:57:31.939Z,5.63
2022-09-05T07:00:04.664Z,7.82
2022-09-05T07:02:59.645Z,6.32
2022-09-05T07:05:55.835Z,4.43
2022-09-05T07:08:45.242Z,11.77
2022-09-05T07:11:25.893Z,3.65
2022-09-05T07:14:13.837Z,5.03
2022-09-05T07:16:53.010Z,8.18
2022-09-05T07:19:30.226Z,4.18
2022-09-05T07:22:48.001Z,3.85
2022-09-05T07:25:22.349Z,4.85
2022-09-05T07:28:28.680Z,4.82
2022-09-05T07:31:00.750Z,4.45
2022-09-05T07:33:31.209Z,4.13
2022-09-05T07:36:09.067Z,4.82
2022-09-05T07:38:54.905Z,4.70
2022-09-05T07:41:32.290Z,5.75
2022-09-05T07:44:17.103Z,7.38
2022-09-05T07:46:55.173Z,8.70
2022-09-05T07:49:26.056Z,3.28
2022-09-05T07:55:07.977Z,4.57
2022-09-05T07:56:59.245Z,5.80
2022-09-05T07:57:51.239Z,3.85
2022-09-05T08:00:27.163Z,4.35
2022-09-05T08:03:00.062Z,5.38
2022-09-05T08:05:37.397Z,3.55
2022-09-05T08:08:11.543Z,4.78
2022-09-05T08:11:25.242Z,6.43
2022-09-05T08:13:42.678Z,3.53
2022-09-05T08:16:19.506Z,4.10
2022-09-05T08:19:00.981Z,3.72
2022-09-05T08:21:46.217Z,5.20
2022-09-05T08:24:32.835Z,5.32
2022-09-05T08:27:10.797Z,3.55
2022-09-05T08:29:47.072Z,5.38
2022-09-05T08:32:38.886Z,6.93
2022-09-05T08:35:17.756Z,4.10
2022-09-05T08:37:45.899Z,3.10
2022-09-05T08:40:47.044Z,6.28
2022-09-05T08:45:52.067Z,3.95
2022-09-05T08:46:44.798Z,6.60
2022-09-05T08:49:44.037Z,6.82
2022-09-05T08:52:45.546Z,4.25
2022-09-05T08:55:19.236Z,2.80
2022-09-05T08:57:46.230Z,3.80
2022-09-05T09:00:24.236Z,3.20
2022-09-05T09:03:19.659Z,3.40
2022-09-05T09:06:13.598Z,4.10
2022-09-05T09:08:57.323Z,7.97
2022-09-05T09:11:36.911Z,3.55
2022-09-05T09:14:52.538Z,2.97
2022-09-05T09:17:39.763Z,4.90
2022-09-05T09:20:45.099Z,7.97
2022-09-05T09:23:45.057Z,3.63
2022-09-05T09:26:24.625Z,4.22
2022-09-05T09:29:10.265Z,3.72
2022-09-05T09:34:25.479Z,3.65
2022-09-05T09:37:16.671Z,3.15
2022-09-05T09:40:23.377Z,3.75
2022-09-05T09:43:06.792Z,3.72
2022-09-05T09:46:10.678Z,4.70
2022-09-05T09:48:51.726Z,3.38
2022-09-05T09:51:19.505Z,3.17
2022-09-05T09:54:13.017Z,11.02
2022-09-05T09:56:55.030Z,3.35
2022-09-05T09:59:53.998Z,3.47
2022-09-05T10:07:26.937Z,5.57
2022-09-05T10:10:52.850Z,3.45
2022-09-05T10:11:07.995Z,5.85
2022-09-05T10:11:59.550Z,3.20
2022-09-05T10:15:03.758Z,2.22
2022-09-05T10:18:01.548Z,4.35
2022-09-05T10:21:16.290Z,2.92
2022-09-05T10:24:10.850Z,3.58
2022-09-05T10:26:56.609Z,3.85
2022-09-05T10:30:04.842Z,4.47
2022-09-05T10:35:07.572Z,3.88
2022-09-05T10:35:42.297Z,4.82
2022-09-05T10:38:22.043Z,3.05
2022-09-05T10:41:11.178Z,3.05
2022-09-05T10:44:02.259Z,3.22
2022-09-05T10:46:51.254Z,3.38
2022-09-05T10:49:30.564Z,3.63
2022-09-05T10:52:35.503Z,2.35
2022-09-05T10:56:05.386Z,3.95
2022-09-05T11:02:11.557Z,2.70
2022-09-05T11:02:26.312Z,2.58
2022-09-05T11:05:19.441Z,3.17
2022-09-05T11:08:07.695Z,2.28
2022-09-05T11:10:52.578Z,3.35
2022-09-05T11:13:49.997Z,2.50
2022-09-05T11:16:48.325Z,3.88
2022-09-05T11:19:23.708Z,2.03
2022-09-05T11:22:19.863Z,2.15
2022-09-05T11:24:55.744Z,2.65
2022-09-05T11:27:40.805Z,2.97
2022-09-05T11:30:30.033Z,2.88
2022-09-05T11:39:46.768Z,2.92
2022-09-05T11:39:57.200Z,2.45
2022-09-05T11:40:24.970Z,3.15
2022-09-05T11:42:07.106Z,3.42
2022-09-05T11:44:44.635Z,2.67
2022-09-05T11:47:30.078Z,3.03
2022-09-05T11:50:25.841Z,2.05
2022-09-05T11:53:37.486Z,3.88
2022-09-05T11:56:25.523Z,3.30
2022-09-05T11:59:32.707Z,4.00
2022-09-05T12:02:16.936Z,2.80
2022-09-05T12:05:49.350Z,3.47
2022-09-05T12:08:35.197Z,2.67
2022-09-05T12:11:20.738Z,2.42
2022-09-05T12:13:51.280Z,5.80
2022-09-05T12:16:45.125Z,3.17
2022-09-05T12:19:41.918Z,3.70
2022-09-05T12:22:23.808Z,3.42
2022-09-05T12:27:26.253Z,2.47
2022-09-05T12:28:46.661Z,4.35
2022-09-05T12:32:50.444Z,3.80
2022-09-05T12:36:07.820Z,3.28
2022-09-05T12:39:01.380Z,4.35
2022-09-05T12:41:35.732Z,2.15
2022-09-05T12:43:44.954Z,2.85
2022-09-05T12:48:39.130Z,3.47
2022-09-05T12:51:47.106Z,3.92
2022-09-05T12:54:33.522Z,2.60
2022-09-05T13:00:39.746Z,3.47
2022-09-05T13:02:57.935Z,2.67
2022-09-05T13:03:27.903Z,4.75
2022-09-05T13:06:02.043Z,3.13
2022-09-05T13:08:59.795Z,3.13
2022-09-05T13:14:49.304Z,2.97
2022-09-05T13:14:57.928Z,3.88
2022-09-05T13:17:14.024Z,3.72
2022-09-05T13:19:51.036Z,4.40
2022-09-05T13:22:22.063Z,4.82
2022-09-05T13:24:58.517Z,4.93
2022-09-05T13:27:32.039Z,4.60
2022-09-05T13:31:44.169Z,3.10
2022-09-05T13:38:17.352Z,6.15
2022-09-05T13:38:19.071Z,2.70
2022-09-05T13:39:04.863Z,3.70
2022-09-05T13:41:36.246Z,6.30
2022-09-05T13:44:30.254Z,2.05
2022-09-05T13:47:30.352Z,3.35
2022-09-05T13:50:07.482Z,4.28
2022-09-05T13:52:43.706Z,4.72
2022-09-05T13:55:22.502Z,3.55
2022-09-05T13:57:56.482Z,6.70
2022-09-05T14:00:29.003Z,3.63
2022-09-05T14:03:38.329Z,3.40
2022-09-05T14:06:46.174Z,2.97
2022-09-05T14:09:35.719Z,3.53
2022-09-05T14:12:28.068Z,2.67
2022-09-05T14:15:09.362Z,3.08
2022-09-05T14:17:55.619Z,3.85
2022-09-05T14:20:49.831Z,6.05
2022-09-05T14:23:20.066Z,2.83
2022-09-05T14:25:53.815Z,2.90
2022-09-05T14:28:27.911Z,5.63
2022-09-05T14:33:08.111Z,5.28
2022-09-05T14:37:42.576Z,6.63
2022-09-05T14:37:44.166Z,10.63
2022-09-05T14:41:11.790Z,4.10
2022-09-05T14:47:06.332Z,3.08
2022-09-05T14:49:49.393Z,6.05
2022-09-05T14:52:31.485Z,2.83
2022-09-05T15:02:41.159Z,2.47
2022-09-05T15:02:58.245Z,3.03
2022-09-05T15:06:33.401Z,3.90
2022-09-05T15:12:16.351Z,3.15
2022-09-05T15:12:21.670Z,2.70
2022-09-05T15:14:37.581Z,2.42
2022-09-05T15:17:05.937Z,4.57
2022-09-05T15:20:06.879Z,2.92
2022-09-05T15:22:37.705Z,3.73
2022-09-05T15:25:20.318Z,2.97
2022-09-05T15:27:49.629Z,1.65
2022-09-05T15:30:25.662Z,2.72
2022-09-05T15:33:15.682Z,3.50
2022-09-05T15:35:44.952Z,2.40
2022-09-05T15:38:27.104Z,2.40
2022-09-05T15:41:02.959Z,2.33
2022-09-05T15:43:30.353Z,6.90
2022-09-05T15:46:04.877Z,2.28
2022-09-05T15:48:36.257Z,5.63
2022-09-05T15:51:17.664Z,3.50
2022-09-05T15:53:44.316Z,3.83
2022-09-05T15:56:10.922Z,3.30
2022-09-05T15:58:53.538Z,4.50
2022-09-05T16:01:46.424Z,4.03
2022-09-05T16:10:30.138Z,3.78
2022-09-05T16:10:34.370Z,2.08
2022-09-05T16:10:35.757Z,4.22
2022-09-05T16:13:10.979Z,5.40
2022-09-05T16:23:13.708Z,3.03
2022-09-05T16:23:24.618Z,7.15
2022-09-05T16:23:32.022Z,3.95
2022-09-05T16:24:24.938Z,3.22
2022-09-05T16:27:13.025Z,2.75
2022-09-05T16:29:44.563Z,7.32
2022-09-05T16:32:14.930Z,5.28
2022-09-05T16:34:56.970Z,4.85
2022-09-05T16:40:23.612Z,4.25
2022-09-05T16:43:05.479Z,3.47
2022-09-05T16:45:43.044Z,2.83
2022-09-05T16:48:21.563Z,2.95
2022-09-05T16:51:13.239Z,4.25
2022-09-05T16:54:11.052Z,7.90
2022-09-05T16:56:49.966Z,7.20
2022-09-05T16:59:23.956Z,3.42
2022-09-05T17:02:06.072Z,5.10
2022-09-05T17:05:02.949Z,3.28
2022-09-05T17:07:55.595Z,2.55
2022-09-05T17:10:29.068Z,3.13
2022-09-05T17:12:56.443Z,4.05
2022-09-05T17:15:36.227Z,4.15
2022-09-05T17:18:21.957Z,3.80
2022-09-05T17:20:55.798Z,3.40
2022-09-05T17:29:23.872Z,3.85
2022-09-05T17:29:29.830Z,6.65
2022-09-05T17:32:47.607Z,3.35
2022-09-05T17:35:26.215Z,11.00
2022-09-05T17:38:16.975Z,4.63
2022-09-05T17:41:19.422Z,6.15
2022-09-05T17:46:29.813Z,4.75
2022-09-05T17:49:17.619Z,6.88
2022-09-05T17:51:52.078Z,5.80
2022-09-05T17:54:27.649Z,11.50
2022-09-05T17:56:54.382Z,6.97
2022-09-05T17:59:21.372Z,4.65
2022-09-05T18:02:25.838Z,8.73
2022-09-05T18:04:54.264Z,6.15
2022-09-05T18:07:27.127Z,11.07
2022-09-05T18:10:12.351Z,7.38
2022-09-05T18:15:27.720Z,5.85
2022-09-05T18:17:54.597Z,5.40
2022-09-05T18:20:27.390Z,5.75
2022-09-05T18:23:39.622Z,4.82
2022-09-05T18:26:20.940Z,4.72
2022-09-05T18:29:14.496Z,3.60
2022-09-05T18:31:42.722Z,4.53
2022-09-05T18:34:13.608Z,5.72
2022-09-05T18:36:43.885Z,7.15
2022-09-05T18:39:37.237Z,7.40
2022-09-05T18:42:25.846Z,9.60
2022-09-05T18:44:59.696Z,7.95
2022-09-05T18:47:52.709Z,5.22
2022-09-05T18:50:27.922Z,5.55
2022-09-05T18:53:09.312Z,3.28
2022-09-05T18:56:10.142Z,6.82
2022-09-05T18:58:34.529Z,6.43
2022-09-05T19:01:28.212Z,7.65
2022-09-05T19:03:59.769Z,4.95
2022-09-05T19:06:35.863Z,6.03
2022-09-05T19:09:26.754Z,7.40
2022-09-05T19:11:53.984Z,7.82
2022-09-05T19:14:44.946Z,10.55
2022-09-05T19:17:23.608Z,6.72
2022-09-05T19:20:31.401Z,5.38
2022-09-05T19:23:09.738Z,4.57
2022-09-05T19:25:43.077Z,3.53
2022-09-05T19:35:15.485Z,4.22
2022-09-05T19:36:54.504Z,6.70
2022-09-05T19:36:56.794Z,4.45
2022-09-05T19:45:05.615Z,3.97
2022-09-05T19:47:42.044Z,4.70
2022-09-05T19:47:46.357Z,7.95
2022-09-05T19:48:34.379Z,4.47
2022-09-05T19:51:20.546Z,4.95
2022-09-05T19:54:05.047Z,6.93
2022-09-05T19:56:43.202Z,6.90
2022-09-05T19:59:22.647Z,5.50
2022-09-05T20:01:51.925Z,7.68
2022-09-05T20:04:20.275Z,8.02
2022-09-05T20:06:49.461Z,7.28
2022-09-05T20:09:22.458Z,5.38
2022-09-05T20:11:58.240Z,6.38
2022-09-05T20:14:35.668Z,6.10
2022-09-05T20:17:24.801Z,5.75
2022-09-05T20:20:09.911Z,6.90
2022-09-05T20:22:48.728Z,5.75
2022-09-05T20:25:36.144Z,4.72
2022-09-05T20:28:10.231Z,4.57
2022-09-05T20:30:42.247Z,11.90
2022-09-05T20:33:44.434Z,4.28
2022-09-05T20:43:07.762Z,7.55
2022-09-05T20:43:24.163Z,7.05
2022-09-05T20:43:25.329Z,4.93
2022-09-05T20:44:51.539Z,10.15
2022-09-05T20:54:09.665Z,8.95
2022-09-05T20:54:20.156Z,7.20
2022-09-05T20:54:25.001Z,6.70
2022-09-05T20:56:21.534Z,7.07
2022-09-05T20:58:55.661Z,9.93
2022-09-05T21:01:23.687Z,11.70
2022-09-05T21:03:59.553Z,7.10
2022-09-05T21:06:33.853Z,6.07
2022-09-05T21:09:25.429Z,7.85
2022-09-05T21:11:55.729Z,6.25
2022-09-05T21:14:24.343Z,14.45
2022-09-05T21:17:00.146Z,14.02
2022-09-05T21:19:30.791Z,7.63
2022-09-05T21:22:23.789Z,14.32
2022-09-05T21:25:41.398Z,10.25
2022-09-05T21:28:36.493Z,8.02
2022-09-05T21:31:08.814Z,14.00
2022-09-05T21:33:45.857Z,8.10
2022-09-05T21:36:15.356Z,7.00
2022-09-05T21:38:43.298Z,6.82
2022-09-05T21:41:14.318Z,7.70
2022-09-05T21:47:33.318Z,11.98
2022-09-05T21:47:43.873Z,7.35
2022-09-05T21:49:18.591Z,7.63
2022-09-05T21:51:51.914Z,8.32
2022-09-05T21:59:14.249Z,7.88
2022-09-05T21:59:21.635Z,6.13
2022-09-05T22:00:10.607Z,7.05
2022-09-05T22:02:38.141Z,7.97
2022-09-05T22:05:05.100Z,12.40
2022-09-05T22:07:35.614Z,7.10
2022-09-05T22:10:04.452Z,8.27
2022-09-05T22:12:36.148Z,7.53
2022-09-05T22:15:12.997Z,8.70
2022-09-05T22:17:54.449Z,8.95
2022-09-05T22:20:29.224Z,9.15
2022-09-05T22:22:56.325Z,7.25
2022-09-05T22:25:30.874Z,8.32
2022-09-05T22:28:06.401Z,10.07
2022-09-05T22:30:36.664Z,9.25
2022-09-05T22:33:06.607Z,9.07
2022-09-05T22:35:34.564Z,18.02
2022-09-05T22:38:12.582Z,10.60
2022-09-05T22:40:42.128Z,12.27
2022-09-05T22:43:10.520Z,11.88
2022-09-05T22:45:39.108Z,10.20
2022-09-05T22:48:08.956Z,7.20
2022-09-05T22:50:36.152Z,10.40
2022-09-05T22:53:06.747Z,8.90
2022-09-05T22:55:38.608Z,6.70
2022-09-05T22:58:06.389Z,11.63
2022-09-05T23:00:34.531Z,7.88
2022-09-05T23:03:03.512Z,7.95
2022-09-05T23:05:31.007Z,8.45
2022-09-05T23:07:59.281Z,10.98
2022-09-05T23:10:26.862Z,8.30
2022-09-05T23:12:54.199Z,14.80
2022-09-05T23:15:20.955Z,6.35
2022-09-05T23:17:55.146Z,9.65
2022-09-05T23:20:22.643Z,7.05
2022-09-05T23:22:49.578Z,9.95
2022-09-05T23:25:17.378Z,9.40
2022-09-05T23:27:44.334Z,7.28
2022-09-05T23:30:11.849Z,10.05
2022-09-05T23:32:45.062Z,7.28
2022-09-05T23:35:12.175Z,12.25
2022-09-05T23:37:43.145Z,9.35
2022-09-05T23:40:21.954Z,9.25
2022-09-05T23:42:56.408Z,7.68
2022-09-05T23:45:26.907Z,9.35
2022-09-05T23:47:54.159Z,18.70
2022-09-05T23:50:21.031Z,13.85
2022-09-05T23:52:48.732Z,12.70
2022-09-05T23:55:18.354Z,11.95
2022-09-05T23:57:45.620Z,14.93
